createdAt,value
2023-06-12T00:00:54.407Z,97729.25
2023-06-12T00:03:25.872Z,97719.66
2023-06-12T00:05:54.726Z,97718.69
2023-06-12T00:08:23.582Z,97723.31
2023-06-12T00:10:50.214Z,97733.31
2023-06-12T00:13:16.943Z,97739.81
2023-06-12T00:15:43.580Z,97743.72
2023-06-12T00:18:12.337Z,97739.94
2023-06-12T00:20:39.309Z,97740.03
2023-06-12T00:23:06.108Z,97736.00
2023-06-12T00:25:34.232Z,97737.56
2023-06-12T00:28:00.898Z,97745.97
2023-06-12T00:30:27.526Z,97741.00
2023-06-12T00:32:54.169Z,97752.03
2023-06-12T00:35:20.819Z,97752.44
2023-06-12T00:37:48.823Z,97748.53
2023-06-12T00:40:16.105Z,97745.72
2023-06-12T00:42:46.755Z,97747.03
2023-06-12T00:45:14.764Z,97742.16
2023-06-12T00:47:42.323Z,97743.25
2023-06-12T00:50:14.345Z,97740.31
2023-06-12T00:52:46.947Z,97739.22
2023-06-12T00:55:15.880Z,97727.16
2023-06-12T00:57:43.776Z,97729.31
2023-06-12T01:00:13.496Z,97733.56
2023-06-12T01:02:45.965Z,97739.00
2023-06-12T01:05:20.692Z,97742.94
2023-06-12T01:08:10.706Z,97749.06
2023-06-12T01:10:52.601Z,97739.38
2023-06-12T01:13:20.766Z,97751.34
2023-06-12T01:15:47.531Z,97747.31
2023-06-12T01:18:14.446Z,97744.00
2023-06-12T01:20:44.403Z,97743.53
2023-06-12T01:23:37.530Z,97756.91
2023-06-12T01:26:27.240Z,97747.19
2023-06-12T01:29:12.377Z,97757.63
2023-06-12T01:32:04.026Z,97760.47
2023-06-12T01:34:38.590Z,97753.00
2023-06-12T01:37:22.308Z,97753.00
2023-06-12T01:39:58.728Z,97761.78
2023-06-12T01:42:30.637Z,97767.09
2023-06-12T01:44:57.465Z,97761.66
2023-06-12T01:47:24.849Z,97765.91
2023-06-12T01:49:51.593Z,97756.56
2023-06-12T01:52:18.657Z,97758.09
2023-06-12T01:54:51.498Z,97755.81
2023-06-12T01:57:20.756Z,97773.03
2023-06-12T01:59:48.310Z,97777.56
2023-06-12T02:02:16.252Z,97780.97
2023-06-12T02:04:43.288Z,97766.50
2023-06-12T02:07:10.864Z,97778.59
2023-06-12T02:09:37.519Z,97780.84
2023-06-12T02:12:04.818Z,97774.94
2023-06-12T02:14:31.951Z,97779.91
2023-06-12T02:16:58.715Z,97775.38
2023-06-12T02:19:27.054Z,97773.50
2023-06-12T02:21:55.151Z,97765.09
2023-06-12T02:24:26.118Z,97767.56
2023-06-12T02:26:52.941Z,97771.38
2023-06-12T02:29:19.558Z,97779.78
2023-06-12T02:31:46.409Z,97774.81
2023-06-12T02:34:13.087Z,97772.09
2023-06-12T02:36:42.716Z,97770.78
2023-06-12T02:39:13.884Z,97774.69
2023-06-12T02:41:42.169Z,97786.16
2023-06-12T02:44:08.780Z,97784.13
2023-06-12T02:46:52.328Z,97786.41
2023-06-12T02:49:20.297Z,97794.47
2023-06-12T02:51:47.100Z,97788.78
2023-06-12T02:54:15.660Z,97796.91
2023-06-12T02:56:48.284Z,97802.00
2023-06-12T02:59:26.042Z,97811.50
2023-06-12T03:01:52.691Z,97810.31
2023-06-12T03:04:21.336Z,97808.56
2023-06-12T03:06:54.481Z,97813.16
2023-06-12T03:09:24.521Z,97819.94
2023-06-12T03:11:53.378Z,97812.34
2023-06-12T03:14:25.635Z,97821.09
2023-06-12T03:16:52.747Z,97820.16
2023-06-12T03:19:19.517Z,97820.16
2023-06-12T03:21:46.150Z,97823.59
2023-06-12T03:24:14.942Z,97830.84
2023-06-12T03:26:43.039Z,97826.44
2023-06-12T03:29:10.802Z,97830.50
2023-06-12T03:31:37.688Z,97820.78
2023-06-12T03:34:04.508Z,97826.09
2023-06-12T03:36:35.334Z,97825.28
2023-06-12T03:39:04.222Z,97826.09
2023-06-12T03:41:34.768Z,97834.31
2023-06-12T03:44:01.657Z,97823.41
2023-06-12T03:46:32.217Z,97829.66
2023-06-12T03:48:59.111Z,97824.53
2023-06-12T03:51:25.926Z,97828.81
2023-06-12T03:53:52.618Z,97836.84
2023-06-12T03:56:19.243Z,97837.84
2023-06-12T03:58:46.108Z,97833.91
2023-06-12T04:01:12.754Z,97844.75
2023-06-12T04:03:39.825Z,97852.16
2023-06-12T04:06:06.554Z,97850.94
2023-06-12T04:08:33.705Z,97844.59
2023-06-12T04:11:03.793Z,97856.28
2023-06-12T04:13:30.988Z,97851.81
2023-06-12T04:15:58.705Z,97840.47
2023-06-12T04:18:26.187Z,97844.56
2023-06-12T04:20:53.025Z,97840.81
2023-06-12T04:23:19.699Z,97842.19
2023-06-12T04:25:46.425Z,97848.81
2023-06-12T04:28:14.824Z,97845.66
2023-06-12T04:30:42.986Z,97856.84
2023-06-12T04:33:11.061Z,97859.88
2023-06-12T04:35:38.473Z,97853.75
2023-06-12T04:38:06.464Z,97849.28
2023-06-12T04:40:37.722Z,97855.13
2023-06-12T04:43:07.938Z,97855.22
2023-06-12T04:45:35.933Z,97861.72
2023-06-12T04:48:03.713Z,97860.72
2023-06-12T04:50:32.241Z,97861.84
2023-06-12T04:52:59.294Z,97869.09
2023-06-12T04:55:30.406Z,97868.78
2023-06-12T04:57:59.254Z,97877.31
2023-06-12T05:00:26.959Z,97874.06
2023-06-12T05:02:57.020Z,97871.78
2023-06-12T05:05:23.663Z,97874.78
2023-06-12T05:07:50.468Z,97878.59
2023-06-12T05:10:17.130Z,97884.41
2023-06-12T05:12:44.242Z,97881.66
2023-06-12T05:15:11.304Z,97877.06
2023-06-12T05:17:39.011Z,97884.97
2023-06-12T05:20:10.149Z,97886.31
2023-06-12T05:22:37.684Z,97886.72
2023-06-12T05:25:05.266Z,97888.03
2023-06-12T05:27:32.480Z,97891.69
2023-06-12T05:29:59.236Z,97895.47
2023-06-12T05:32:26.001Z,97896.81
2023-06-12T05:34:52.750Z,97894.47
2023-06-12T05:37:19.481Z,97909.09
2023-06-12T05:39:46.403Z,97909.66
2023-06-12T05:42:13.122Z,97916.56
2023-06-12T05:44:39.824Z,97916.63
2023-06-12T05:47:10.284Z,97914.50
2023-06-12T05:49:37.862Z,97923.09
2023-06-12T05:52:05.211Z,97918.50
2023-06-12T05:54:33.125Z,97921.69
2023-06-12T05:56:59.949Z,97918.78
2023-06-12T05:59:26.660Z,97914.06
2023-06-12T06:01:53.426Z,97915.03
2023-06-12T06:04:20.496Z,97916.91
2023-06-12T06:06:48.293Z,97924.09
2023-06-12T06:09:16.415Z,97925.50
2023-06-12T06:11:43.614Z,97923.88
2023-06-12T06:14:10.532Z,97929.44
2023-06-12T06:16:49.333Z,97933.34
2023-06-12T06:19:21.284Z,97935.53
2023-06-12T06:21:47.909Z,97939.09
2023-06-12T06:24:14.727Z,97947.97
2023-06-12T06:26:41.941Z,97945.16
2023-06-12T06:29:14.524Z,97947.94
2023-06-12T06:31:42.713Z,97946.22
2023-06-12T06:34:12.143Z,97958.03
2023-06-12T06:36:39.292Z,97963.25
2023-06-12T06:39:06.412Z,97961.00
2023-06-12T06:41:33.078Z,97953.84
2023-06-12T06:43:59.653Z,97955.28
2023-06-12T06:46:26.619Z,97964.28
2023-06-12T06:48:53.429Z,97968.38
2023-06-12T06:51:20.112Z,97962.34
2023-06-12T06:53:46.871Z,97957.31
2023-06-12T06:56:13.580Z,97962.50
2023-06-12T06:58:40.216Z,97963.78
2023-06-12T07:01:07.088Z,97962.06
2023-06-12T07:03:34.397Z,97969.72
2023-06-12T07:06:01.506Z,97972.94
2023-06-12T07:08:28.257Z,97969.97
2023-06-12T07:10:54.894Z,97958.47
2023-06-12T07:13:21.506Z,97956.97
2023-06-12T07:15:48.258Z,97958.75
2023-06-12T07:18:14.941Z,97952.59
2023-06-12T07:20:41.981Z,97955.97
2023-06-12T07:23:08.687Z,97959.19
2023-06-12T07:25:35.434Z,97951.59
2023-06-12T07:28:02.096Z,97946.69
2023-06-12T07:30:28.745Z,97954.41
2023-06-12T07:32:55.600Z,97942.09
2023-06-12T07:35:22.320Z,97940.88
2023-06-12T07:37:51.333Z,97943.63
2023-06-12T07:40:19.188Z,97942.31
2023-06-12T07:42:46.296Z,97948.91
2023-06-12T07:45:13.247Z,97950.78
2023-06-12T07:47:40.538Z,97947.38
2023-06-12T07:50:07.879Z,97948.53
2023-06-12T07:52:35.221Z,97942.56
2023-06-12T07:55:04.408Z,97939.56
2023-06-12T07:57:31.536Z,97941.38
2023-06-12T07:59:59.254Z,97940.09
2023-06-12T08:02:30.265Z,97934.50
2023-06-12T08:04:57.336Z,97940.41
2023-06-12T08:07:24.395Z,97938.13
2023-06-12T08:09:51.045Z,97943.31
2023-06-12T08:12:17.698Z,97948.66
2023-06-12T08:14:44.364Z,97942.41
2023-06-12T08:17:12.542Z,97945.31
2023-06-12T08:19:39.310Z,97930.09
2023-06-12T08:22:09.060Z,97943.56
2023-06-12T08:24:37.329Z,97927.16
2023-06-12T08:27:04.276Z,97927.03
2023-06-12T08:29:31.213Z,97926.75
2023-06-12T08:31:57.974Z,97927.66
2023-06-12T08:34:25.931Z,97929.25
2023-06-12T08:36:54.202Z,97924.38
2023-06-12T08:39:21.029Z,97928.06
2023-06-12T08:42:05.327Z,97918.91
2023-06-12T08:44:32.843Z,97918.22
2023-06-12T08:47:01.964Z,97927.88
2023-06-12T08:49:29.429Z,97928.47
2023-06-12T08:51:56.292Z,97926.28
2023-06-12T08:54:22.986Z,97925.16
2023-06-12T08:56:51.967Z,97930.59
2023-06-12T08:59:18.578Z,97925.28
2023-06-12T09:02:08.197Z,97929.97
2023-06-12T09:05:05.139Z,97919.19
2023-06-12T09:07:36.514Z,97921.31
2023-06-12T09:10:13.575Z,97914.31
2023-06-12T09:12:44.642Z,97915.34
2023-06-12T09:15:21.789Z,97902.88
2023-06-12T09:17:50.805Z,97909.75
2023-06-12T09:20:40.568Z,97908.72
2023-06-12T09:23:09.465Z,97899.19
2023-06-12T09:25:36.297Z,97897.31
2023-06-12T09:28:08.418Z,97896.63
2023-06-12T09:30:40.510Z,97897.97
2023-06-12T09:33:09.061Z,97889.75
2023-06-12T09:35:54.980Z,97893.81
2023-06-12T09:38:35.937Z,97893.91
2023-06-12T09:41:04.928Z,97888.91
2023-06-12T09:43:32.779Z,97884.47
2023-06-12T09:46:02.713Z,97872.63
2023-06-12T09:48:34.579Z,97867.84
2023-06-12T09:51:07.954Z,97867.13
2023-06-12T09:53:39.555Z,97875.31
2023-06-12T09:56:08.526Z,97880.75
2023-06-12T09:58:39.704Z,97866.81
2023-06-12T10:01:08.614Z,97873.06
2023-06-12T10:03:41.094Z,97879.75
2023-06-12T10:06:09.978Z,97871.75
2023-06-12T10:08:37.000Z,97876.41
2023-06-12T10:11:08.461Z,97868.88
2023-06-12T10:13:36.554Z,97880.91
2023-06-12T10:16:04.419Z,97868.56
2023-06-12T10:18:32.479Z,97872.47
2023-06-12T10:21:00.523Z,97859.59
2023-06-12T10:23:27.388Z,97851.84
2023-06-12T10:25:56.036Z,97855.53
2023-06-12T10:28:26.335Z,97842.97
2023-06-12T10:31:18.790Z,97859.19
2023-06-12T10:34:01.692Z,97861.25
2023-06-12T10:36:46.012Z,97848.22
2023-06-12T10:39:28.951Z,97849.41
2023-06-12T10:41:58.134Z,97844.81
2023-06-12T10:44:41.062Z,97855.44
2023-06-12T10:47:21.559Z,97857.09
2023-06-12T10:50:02.443Z,97851.59
2023-06-12T10:52:29.939Z,97846.47
2023-06-12T10:55:19.301Z,97853.91
2023-06-12T10:57:54.589Z,97858.09
2023-06-12T11:00:24.315Z,97846.22
2023-06-12T11:03:09.127Z,97847.53
2023-06-12T11:05:36.156Z,97844.53
2023-06-12T11:08:12.601Z,97837.69
2023-06-12T11:10:39.515Z,97829.28
2023-06-12T11:13:06.266Z,97829.66
2023-06-12T11:15:41.473Z,97830.25
2023-06-12T11:18:09.341Z,97829.75
2023-06-12T11:20:36.175Z,97826.06
2023-06-12T11:23:03.294Z,97824.31
2023-06-12T11:25:47.235Z,97830.78
2023-06-12T11:28:17.192Z,97832.41
2023-06-12T11:31:08.001Z,97844.53
2023-06-12T11:33:37.093Z,97850.25
2023-06-12T11:36:04.200Z,97863.75
2023-06-12T11:41:00.560Z,97850.66
2023-06-12T11:43:28.378Z,97849.91
2023-06-12T11:46:02.948Z,97852.03
2023-06-12T11:51:02.810Z,97850.75
2023-06-12T11:53:31.648Z,97855.81
2023-06-12T11:58:34.656Z,97844.56
2023-06-12T12:01:15.312Z,97856.75
2023-06-12T12:03:46.279Z,97855.78
2023-06-12T12:06:14.362Z,97866.72
2023-06-12T12:08:41.516Z,97860.13
2023-06-12T12:11:21.214Z,97852.50
2023-06-12T12:14:02.640Z,97856.16
2023-06-12T12:16:33.204Z,97854.34
2023-06-12T12:18:59.890Z,97843.28
2023-06-12T12:21:27.479Z,97850.09
2023-06-12T12:23:55.118Z,97850.44
2023-06-12T12:26:22.031Z,97833.75
2023-06-12T12:28:48.718Z,97833.06
2023-06-12T12:31:15.473Z,97831.94
2023-06-12T12:33:42.177Z,97839.84
2023-06-12T12:36:09.260Z,97826.56
2023-06-12T12:38:35.896Z,97843.06
2023-06-12T12:41:02.549Z,97829.88
2023-06-12T12:43:29.211Z,97829.66
2023-06-12T12:45:55.881Z,97825.56
2023-06-12T12:48:22.660Z,97823.72
2023-06-12T12:51:07.192Z,97810.28
2023-06-12T12:53:36.478Z,97813.97
2023-06-12T12:56:03.814Z,97816.75
2023-06-12T12:58:30.611Z,97810.28
2023-06-12T13:00:57.415Z,97814.25
2023-06-12T13:03:24.588Z,97803.34
2023-06-12T13:05:51.621Z,97797.59
2023-06-12T13:08:18.366Z,97813.88
2023-06-12T13:10:45.093Z,97808.41
2023-06-12T13:13:15.481Z,97808.38
2023-06-12T13:15:43.605Z,97803.16
2023-06-12T13:18:10.362Z,97796.59
2023-06-12T13:20:37.048Z,97800.19
2023-06-12T13:23:03.715Z,97795.84
2023-06-12T13:25:30.664Z,97804.63
2023-06-12T13:27:57.307Z,97797.03
2023-06-12T13:30:25.923Z,97796.44
2023-06-12T13:32:54.863Z,97794.28
2023-06-12T13:35:21.533Z,97782.19
2023-06-12T13:37:48.236Z,97783.28
2023-06-12T13:40:15.211Z,97771.16
2023-06-12T13:42:42.656Z,97756.59
2023-06-12T13:45:10.060Z,97778.84
2023-06-12T13:47:38.126Z,97773.91
2023-06-12T13:50:07.763Z,97764.84
2023-06-12T13:52:34.347Z,97760.44
2023-06-12T13:55:01.060Z,97762.38
2023-06-12T13:57:27.690Z,97765.44
2023-06-12T13:59:56.028Z,97762.97
2023-06-12T14:02:23.099Z,97759.63
2023-06-12T14:04:50.183Z,97764.59
2023-06-12T14:07:16.992Z,97762.69
2023-06-12T14:09:43.726Z,97774.19
2023-06-12T14:12:10.505Z,97771.44
2023-06-12T14:14:37.283Z,97770.03
2023-06-12T14:17:04.158Z,97767.47
2023-06-12T14:19:30.807Z,97757.81
2023-06-12T14:21:57.439Z,97754.47
2023-06-12T14:24:36.974Z,97757.75
2023-06-12T14:27:05.355Z,97757.44
2023-06-12T14:29:33.144Z,97765.13
2023-06-12T14:32:00.057Z,97763.97
2023-06-12T14:34:27.275Z,97770.28
2023-06-12T14:36:53.952Z,97768.56
2023-06-12T14:39:20.655Z,97755.50
2023-06-12T14:41:47.277Z,97769.00
2023-06-12T14:44:16.311Z,97765.69
2023-06-12T14:46:43.328Z,97772.03
2023-06-12T14:49:10.045Z,97771.44
2023-06-12T14:51:36.658Z,97787.13
2023-06-12T14:54:03.314Z,97788.81
2023-06-12T14:56:29.945Z,97797.69
2023-06-12T14:58:57.217Z,97789.72
2023-06-12T15:01:23.879Z,97792.03
2023-06-12T15:03:51.829Z,97791.75
2023-06-12T15:06:18.763Z,97791.25
2023-06-12T15:08:46.576Z,97792.88
2023-06-12T15:11:13.220Z,97797.66
2023-06-12T15:13:39.934Z,97800.47
2023-06-12T15:16:06.777Z,97795.81
2023-06-12T15:18:43.812Z,97800.22
2023-06-12T15:21:11.706Z,97801.38
2023-06-12T15:23:38.383Z,97808.59
2023-06-12T15:26:05.130Z,97806.97
2023-06-12T15:28:33.474Z,97820.47
2023-06-12T15:31:00.660Z,97812.72
2023-06-12T15:33:27.337Z,97811.94
2023-06-12T15:35:53.965Z,97814.69
2023-06-12T15:38:40.697Z,97809.75
2023-06-12T15:41:10.688Z,97815.25
2023-06-12T15:43:38.661Z,97823.22
2023-06-12T15:46:08.196Z,97824.63
2023-06-12T15:48:38.735Z,97816.91
2023-06-12T15:51:05.580Z,97817.97
2023-06-12T15:53:32.273Z,97820.19
2023-06-12T15:55:59.490Z,97824.03
2023-06-12T15:58:26.261Z,97824.31
2023-06-12T16:00:52.884Z,97825.16
2023-06-12T16:03:19.738Z,97823.47
2023-06-12T16:05:46.503Z,97826.81
2023-06-12T16:08:13.372Z,97824.06
2023-06-12T16:10:40.087Z,97835.06
2023-06-12T16:13:06.867Z,97831.22
2023-06-12T16:15:33.504Z,97830.06
2023-06-12T16:18:00.314Z,97832.81
2023-06-12T16:20:27.133Z,97846.59
2023-06-12T16:22:53.872Z,97842.75
2023-06-12T16:25:21.710Z,97845.47
2023-06-12T16:27:48.567Z,97851.78
2023-06-12T16:30:16.090Z,97859.72
2023-06-12T16:32:43.000Z,97865.75
2023-06-12T16:35:10.731Z,97867.41
2023-06-12T16:37:37.707Z,97867.41
2023-06-12T16:40:09.997Z,97872.63
2023-06-12T16:42:40.555Z,97866.31
2023-06-12T16:45:07.776Z,97880.63
2023-06-12T16:47:36.040Z,97886.94
2023-06-12T16:50:03.283Z,97891.56
2023-06-12T16:52:29.992Z,97887.69
2023-06-12T16:54:56.881Z,97894.75
2023-06-12T16:57:25.337Z,97902.16
2023-06-12T16:59:52.139Z,97912.88
2023-06-12T17:02:19.541Z,97909.88
2023-06-12T17:04:47.151Z,97910.72
2023-06-12T17:07:14.382Z,97902.72
2023-06-12T17:09:41.204Z,97901.88
2023-06-12T17:12:08.379Z,97898.53
2023-06-12T17:14:36.387Z,97896.34
2023-06-12T17:17:04.531Z,97893.53
2023-06-12T17:19:31.902Z,97889.91
2023-06-12T17:21:58.798Z,97881.41
2023-06-12T17:24:25.668Z,97888.50
2023-06-12T17:26:52.698Z,97887.69
2023-06-12T17:29:19.387Z,97897.78
2023-06-12T17:31:46.192Z,97902.72
2023-06-12T17:34:12.935Z,97910.97
2023-06-12T17:36:41.478Z,97911.22
2023-06-12T17:39:10.671Z,97904.31
2023-06-12T17:41:41.405Z,97907.59
2023-06-12T17:44:08.668Z,97919.72
2023-06-12T17:46:35.508Z,97925.22
2023-06-12T17:49:02.335Z,97939.50
2023-06-12T17:51:29.011Z,97935.63
2023-06-12T17:53:55.643Z,97941.38
2023-06-12T17:56:26.301Z,97947.16
2023-06-12T17:58:53.123Z,97935.56
2023-06-12T18:01:19.780Z,97937.22
2023-06-12T18:03:46.576Z,97937.94
2023-06-12T18:06:13.376Z,97940.16
2023-06-12T18:08:40.061Z,97929.72
2023-06-12T18:11:06.976Z,97926.91
2023-06-12T18:13:34.295Z,97934.38
2023-06-12T18:16:01.387Z,97940.41
2023-06-12T18:18:28.312Z,97937.06
2023-06-12T18:20:55.026Z,97946.31
2023-06-12T18:23:21.706Z,97956.16
2023-06-12T18:25:48.424Z,97958.53
2023-06-12T18:28:18.891Z,97963.91
2023-06-12T18:30:45.694Z,97970.44
2023-06-12T18:33:12.488Z,97983.47
2023-06-12T18:35:39.252Z,97979.91
2023-06-12T18:38:06.844Z,97983.22
2023-06-12T18:40:33.554Z,97990.09
2023-06-12T18:43:00.424Z,97991.19
2023-06-12T18:45:27.109Z,97991.47
2023-06-12T18:47:53.873Z,98000.69
2023-06-12T18:50:20.894Z,97999.34
2023-06-12T18:52:47.577Z,97997.47
2023-06-12T18:55:14.789Z,98008.66
2023-06-12T18:57:41.634Z,98015.19
2023-06-12T19:00:09.521Z,98016.78
2023-06-12T19:02:36.245Z,98017.38
2023-06-12T19:05:03.415Z,98015.91
2023-06-12T19:07:30.038Z,98027.88
2023-06-12T19:09:56.770Z,98034.78
2023-06-12T19:12:23.443Z,98037.00
2023-06-12T19:14:50.114Z,98029.56
2023-06-12T19:17:16.816Z,98038.59
2023-06-12T19:19:44.061Z,98038.91
2023-06-12T19:22:10.745Z,98047.06
2023-06-12T19:24:37.471Z,98049.50
2023-06-12T19:27:04.426Z,98048.75
2023-06-12T19:29:31.073Z,98046.63
2023-06-12T19:31:57.793Z,98050.63
2023-06-12T19:34:24.416Z,98049.28
2023-06-12T19:36:51.506Z,98051.94
2023-06-12T19:39:18.200Z,98056.59
2023-06-12T19:41:44.815Z,98052.44
2023-06-12T19:44:13.124Z,98058.75
2023-06-12T19:46:40.980Z,98055.59
2023-06-12T19:49:07.686Z,98048.81
2023-06-12T19:51:39.294Z,98047.72
2023-06-12T19:54:06.614Z,98059.59
2023-06-12T19:56:33.253Z,98058.19
2023-06-12T19:59:00.107Z,98058.44
2023-06-12T20:01:26.833Z,98058.19
2023-06-12T20:03:53.562Z,98059.75
2023-06-12T20:06:20.269Z,98053.94
2023-06-12T20:08:46.896Z,98059.75
2023-06-12T20:11:13.502Z,98061.09
2023-06-12T20:13:40.232Z,98056.97
2023-06-12T20:16:06.941Z,98047.59
2023-06-12T20:18:33.801Z,98059.56
2023-06-12T20:21:00.557Z,98060.81
2023-06-12T20:23:27.425Z,98058.19
2023-06-12T20:25:54.478Z,98059.81
2023-06-12T20:28:21.355Z,98052.59
2023-06-12T20:30:48.332Z,98056.09
2023-06-12T20:33:15.105Z,98055.50
2023-06-12T20:35:41.849Z,98052.41
2023-06-12T20:38:08.523Z,98061.97
2023-06-12T20:40:35.502Z,98056.16
2023-06-12T20:43:02.337Z,98048.94
2023-06-12T20:45:29.198Z,98065.72
2023-06-12T20:47:56.920Z,98053.00
2023-06-12T20:50:23.759Z,98056.81
2023-06-12T20:52:50.574Z,98061.53
2023-06-12T20:55:17.410Z,98065.34
2023-06-12T20:57:44.086Z,98058.31
2023-06-12T21:00:11.612Z,98063.22
2023-06-12T21:02:38.348Z,98058.25
2023-06-12T21:05:05.468Z,98065.13
2023-06-12T21:07:32.156Z,98068.84
2023-06-12T21:09:58.845Z,98060.03
2023-06-12T21:12:25.595Z,98056.25
2023-06-12T21:14:52.224Z,98053.50
2023-06-12T21:17:18.870Z,98053.50
2023-06-12T21:19:45.657Z,98051.94
2023-06-12T21:22:12.323Z,98045.78
2023-06-12T21:24:39.002Z,98044.03
2023-06-12T21:27:06.756Z,98051.28
2023-06-12T21:29:33.490Z,98044.38
2023-06-12T21:32:00.325Z,98040.06
2023-06-12T21:34:27.071Z,98051.28
2023-06-12T21:36:54.728Z,98050.09
2023-06-12T21:39:27.741Z,98052.25
2023-06-12T21:41:54.452Z,98049.28
2023-06-12T21:44:21.170Z,98052.84
2023-06-12T21:46:47.762Z,98047.09
2023-06-12T21:49:14.424Z,98048.44
2023-06-12T21:51:43.545Z,98039.63
2023-06-12T21:54:10.183Z,98041.63
2023-06-12T21:56:37.054Z,98035.19
2023-06-12T21:59:03.686Z,98041.81
2023-06-12T22:01:30.675Z,98042.28
2023-06-12T22:03:57.514Z,98045.19
2023-06-12T22:06:24.291Z,98037.81
2023-06-12T22:08:50.939Z,98039.22
2023-06-12T22:11:17.592Z,98029.84
2023-06-12T22:13:44.263Z,98041.97
2023-06-12T22:16:10.946Z,98035.81
2023-06-12T22:18:37.886Z,98033.69
2023-06-12T22:21:04.751Z,98027.63
2023-06-12T22:23:31.545Z,98022.78
2023-06-12T22:25:58.425Z,98018.06
2023-06-12T22:28:25.087Z,98014.75
2023-06-12T22:31:01.777Z,98013.47
2023-06-12T22:33:30.241Z,98005.88
2023-06-12T22:35:56.880Z,98011.56
2023-06-12T22:38:24.120Z,98013.00
2023-06-12T22:40:51.398Z,98003.63
2023-06-12T22:43:18.043Z,97995.81
2023-06-12T22:45:44.774Z,98004.44
2023-06-12T22:48:11.795Z,98002.09
2023-06-12T22:50:39.370Z,98004.69
2023-06-12T22:53:12.896Z,97997.97
2023-06-12T22:55:41.714Z,97995.03
2023-06-12T22:58:08.450Z,97990.00
2023-06-12T23:00:35.151Z,97985.03
2023-06-12T23:03:01.828Z,97980.19
2023-06-12T23:05:28.497Z,97975.94
2023-06-12T23:07:55.182Z,97971.03
2023-06-12T23:10:22.136Z,97973.53
2023-06-12T23:12:48.783Z,97964.63
2023-06-12T23:15:15.744Z,97968.38
2023-06-12T23:17:48.478Z,97962.91
2023-06-12T23:20:16.865Z,97960.06
2023-06-12T23:22:53.901Z,97962.94
2023-06-12T23:25:21.065Z,97955.25
2023-06-12T23:27:57.296Z,97951.06
2023-06-12T23:30:27.963Z,97951.56
2023-06-12T23:32:57.965Z,97940.78
2023-06-12T23:35:24.903Z,97960.84
2023-06-12T23:37:52.024Z,97950.50
2023-06-12T23:40:19.032Z,97954.41
2023-06-12T23:42:47.046Z,97961.16
2023-06-12T23:45:13.685Z,97945.88
2023-06-12T23:47:40.402Z,97945.03
2023-06-12T23:50:08.278Z,97937.69
2023-06-12T23:52:34.895Z,97935.75
2023-06-12T23:55:01.524Z,97931.84
2023-06-12T23:57:28.158Z,97928.44
2023-06-12T23:59:55.471Z,97937.31
